createdAt,value
2017-12-16T00:02:02.600Z,10.77
2017-12-16T00:04:30.930Z,12.63
2017-12-16T00:07:00.077Z,11.93
2017-12-16T00:09:28.436Z,10.90
2017-12-16T00:11:57.563Z,11.87
2017-12-16T00:14:25.971Z,11.93
2017-12-16T00:16:54.299Z,13.00
2017-12-16T00:19:22.655Z,12.90
2017-12-16T00:21:51.776Z,13.00
2017-12-16T00:24:20.208Z,12.43
2017-12-16T00:26:48.604Z,12.67
2017-12-16T00:29:16.960Z,11.10
2017-12-16T00:31:45.332Z,10.10
2017-12-16T00:34:13.714Z,12.80
2017-12-16T00:36:42.125Z,11.80
2017-12-16T00:39:10.501Z,11.70
2017-12-16T00:41:38.880Z,13.80
2017-12-16T00:44:07.202Z,13.63
2017-12-16T00:46:35.534Z,14.23
2017-12-16T00:49:03.925Z,15.23
2017-12-16T00:51:33.098Z,11.30
2017-12-16T00:54:01.467Z,14.03
2017-12-16T00:56:29.805Z,10.40
2017-12-16T00:58:58.909Z,12.43
2017-12-16T01:01:27.267Z,12.73
2017-12-16T01:03:55.671Z,10.80
2017-12-16T01:06:24.026Z,12.97
2017-12-16T01:08:53.197Z,12.60
2017-12-16T01:11:23.608Z,12.70
2017-12-16T01:13:51.955Z,13.20
2017-12-16T01:16:20.310Z,13.90
2017-12-16T01:18:48.659Z,12.47
2017-12-16T01:21:17.044Z,12.60
2017-12-16T01:23:45.396Z,14.23
2017-12-16T01:26:13.720Z,13.73
2017-12-16T01:28:42.087Z,13.90
2017-12-16T01:31:10.423Z,12.60
2017-12-16T01:33:50.699Z,13.33
2017-12-16T01:36:30.901Z,14.20
2017-12-16T01:39:00.011Z,17.10
2017-12-16T01:41:28.352Z,14.70
2017-12-16T01:43:57.502Z,15.17
2017-12-16T01:46:25.840Z,13.80
2017-12-16T01:48:54.238Z,14.70
2017-12-16T01:51:23.358Z,14.23
2017-12-16T01:53:51.751Z,12.97
2017-12-16T01:56:20.075Z,13.50
2017-12-16T01:58:48.424Z,13.80
2017-12-16T02:01:16.774Z,11.93
2017-12-16T02:03:45.185Z,11.87
2017-12-16T02:06:13.560Z,12.40
2017-12-16T02:08:41.917Z,11.63
2017-12-16T02:11:10.274Z,11.90
2017-12-16T02:13:38.656Z,12.87
2017-12-16T02:16:07.043Z,11.23
2017-12-16T02:18:35.415Z,12.70
2017-12-16T02:21:03.789Z,11.17
2017-12-16T02:23:32.185Z,12.10
2017-12-16T02:26:00.593Z,12.93
2017-12-16T02:28:28.952Z,11.83
2017-12-16T02:30:57.359Z,13.20
2017-12-16T02:33:25.769Z,12.50
2017-12-16T02:35:54.169Z,12.43
2017-12-16T02:38:22.577Z,12.13
2017-12-16T02:40:50.933Z,12.27
2017-12-16T02:43:19.402Z,12.80
2017-12-16T02:45:47.742Z,11.67
2017-12-16T02:48:16.154Z,12.30
2017-12-16T02:50:44.484Z,11.00
2017-12-16T02:53:12.862Z,13.10
2017-12-16T02:55:41.229Z,12.50
2017-12-16T02:58:09.577Z,11.97
2017-12-16T03:00:38.772Z,14.23
2017-12-16T03:03:07.157Z,14.03
2017-12-16T03:05:36.327Z,12.70
2017-12-16T03:08:04.868Z,13.37
2017-12-16T03:10:34.115Z,12.27
2017-12-16T03:13:02.475Z,13.17
2017-12-16T03:15:30.907Z,13.83
2017-12-16T03:17:59.282Z,13.33
2017-12-16T03:20:28.466Z,13.87
2017-12-16T03:22:57.613Z,14.97
2017-12-16T03:25:26.051Z,14.20
2017-12-16T03:28:09.533Z,15.00
2017-12-16T03:30:37.922Z,14.10
2017-12-16T03:33:06.285Z,17.10
2017-12-16T03:35:34.671Z,17.20
2017-12-16T03:38:03.022Z,15.03
2017-12-16T03:40:31.390Z,13.60
2017-12-16T03:42:59.804Z,14.60
2017-12-16T03:45:28.233Z,15.90
2017-12-16T03:47:57.360Z,15.80
2017-12-16T03:50:25.897Z,16.03
2017-12-16T03:52:54.281Z,14.97
2017-12-16T03:55:22.771Z,16.30
2017-12-16T03:57:51.936Z,16.80
2017-12-16T04:00:20.335Z,17.30
2017-12-16T04:02:48.703Z,16.80
2017-12-16T04:05:17.109Z,16.00
2017-12-16T04:07:46.217Z,16.00
2017-12-16T04:10:15.357Z,16.30
2017-12-16T04:12:43.710Z,17.20
2017-12-16T04:15:12.081Z,16.67
2017-12-16T04:17:41.504Z,18.10
2017-12-16T04:20:09.878Z,16.73
2017-12-16T04:22:38.351Z,17.87
2017-12-16T04:25:06.734Z,16.10
2017-12-16T04:27:35.091Z,18.33
2017-12-16T04:30:04.253Z,18.00
2017-12-16T04:32:32.629Z,19.70
2017-12-16T04:35:00.989Z,19.10
2017-12-16T04:37:29.386Z,21.00
2017-12-16T04:39:57.722Z,23.30
2017-12-16T04:42:29.389Z,22.97
2017-12-16T04:44:57.760Z,21.63
2017-12-16T04:47:26.909Z,25.23
2017-12-16T04:49:55.242Z,21.77
2017-12-16T04:52:23.607Z,20.57
2017-12-16T04:54:54.656Z,19.40
2017-12-16T04:57:23.856Z,20.90
2017-12-16T04:59:53.064Z,21.47
2017-12-16T05:02:21.446Z,20.83
2017-12-16T05:04:49.828Z,22.30
2017-12-16T05:07:18.925Z,19.00
2017-12-16T05:09:47.296Z,23.10
2017-12-16T05:12:16.387Z,22.53
2017-12-16T05:14:45.518Z,20.63
2017-12-16T05:17:13.873Z,22.03
2017-12-16T05:19:42.256Z,22.23
2017-12-16T05:22:11.356Z,19.63
2017-12-16T05:24:41.375Z,20.10
2017-12-16T05:27:09.742Z,20.50
2017-12-16T05:29:38.869Z,22.40
2017-12-16T05:32:07.234Z,20.93
2017-12-16T05:34:35.607Z,21.33
2017-12-16T05:37:03.978Z,21.40
2017-12-16T05:39:32.360Z,21.90
2017-12-16T05:42:00.702Z,21.50
2017-12-16T05:44:29.076Z,22.07
2017-12-16T05:46:57.432Z,22.50
2017-12-16T05:49:25.809Z,21.50
2017-12-16T05:51:54.157Z,22.53
2017-12-16T05:54:22.589Z,23.17
2017-12-16T05:56:50.968Z,24.43
2017-12-16T05:59:19.365Z,24.70
2017-12-16T06:01:47.732Z,21.83
2017-12-16T06:04:16.081Z,22.77
2017-12-16T06:06:45.217Z,22.40
2017-12-16T06:09:13.572Z,22.50
2017-12-16T06:11:41.950Z,21.67
2017-12-16T06:14:10.312Z,22.77
2017-12-16T06:16:38.662Z,18.40
2017-12-16T06:19:07.033Z,19.77
2017-12-16T06:21:36.225Z,20.27
2017-12-16T06:24:04.576Z,21.20
2017-12-16T06:26:32.913Z,18.70
2017-12-16T06:29:01.273Z,18.80
2017-12-16T06:31:30.395Z,15.10
2017-12-16T06:33:58.769Z,15.80
2017-12-16T06:36:27.109Z,13.77
2017-12-16T06:38:55.485Z,14.30
2017-12-16T06:41:23.845Z,16.00
2017-12-16T06:43:52.263Z,15.23
2017-12-16T06:46:20.639Z,15.40
2017-12-16T06:48:49.738Z,16.27
2017-12-16T06:51:18.088Z,19.70
2017-12-16T06:53:46.463Z,14.33
2017-12-16T06:56:14.838Z,14.00
2017-12-16T06:58:43.230Z,14.20
2017-12-16T07:01:11.577Z,12.20
2017-12-16T07:03:39.919Z,13.17
2017-12-16T07:06:09.062Z,12.27
2017-12-16T07:08:37.419Z,10.60
2017-12-16T07:11:06.721Z,10.90
2017-12-16T07:13:35.812Z,10.57
2017-12-16T07:16:04.920Z,11.43
2017-12-16T07:18:33.293Z,11.90
2017-12-16T07:21:01.659Z,10.10
2017-12-16T07:23:30.009Z,10.80
2017-12-16T07:25:58.417Z,11.40
2017-12-16T07:28:26.760Z,10.57
2017-12-16T07:30:55.105Z,9.47
2017-12-16T07:33:23.494Z,10.93
2017-12-16T07:35:51.857Z,10.17
2017-12-16T07:38:21.003Z,11.23
2017-12-16T07:40:49.333Z,10.87
2017-12-16T07:43:17.693Z,12.90
2017-12-16T07:45:46.783Z,10.00
2017-12-16T07:48:15.897Z,9.13
2017-12-16T07:50:45.016Z,10.50
2017-12-16T07:53:13.357Z,13.33
2017-12-16T07:55:42.446Z,11.87
2017-12-16T07:58:10.821Z,15.67
2017-12-16T08:00:39.158Z,11.93
2017-12-16T08:03:07.578Z,9.70
2017-12-16T08:05:36.706Z,9.73
2017-12-16T08:08:05.057Z,7.90
2017-12-16T08:10:34.190Z,8.07
2017-12-16T08:13:02.518Z,9.53
2017-12-16T08:15:30.869Z,8.53
2017-12-16T08:17:59.220Z,8.47
2017-12-16T08:20:27.585Z,8.63
2017-12-16T08:22:56.706Z,8.70
2017-12-16T08:25:25.059Z,15.97
2017-12-16T08:27:54.185Z,18.40
2017-12-16T08:30:22.564Z,9.83
2017-12-16T08:32:50.903Z,9.00
2017-12-16T08:35:20.047Z,7.47
2017-12-16T08:37:48.379Z,8.00
2017-12-16T08:40:16.709Z,7.90
2017-12-16T08:42:45.820Z,7.93
2017-12-16T08:45:14.150Z,7.20
2017-12-16T08:47:43.268Z,4.83
2017-12-16T08:50:11.573Z,5.10
2017-12-16T08:52:39.996Z,5.80
2017-12-16T08:55:09.092Z,6.90
2017-12-16T08:57:37.491Z,7.80
2017-12-16T09:00:05.892Z,8.20
2017-12-16T09:02:34.244Z,8.33
2017-12-16T09:05:03.358Z,8.80
2017-12-16T09:07:31.689Z,8.00
2017-12-16T09:10:00.061Z,10.00
2017-12-16T09:12:28.398Z,8.67
2017-12-16T09:14:56.762Z,7.90
2017-12-16T09:17:25.842Z,7.93
2017-12-16T09:19:54.953Z,8.43
2017-12-16T09:22:24.061Z,8.23
2017-12-16T09:24:52.421Z,7.80
2017-12-16T09:27:20.799Z,7.20
2017-12-16T09:29:49.119Z,8.40
2017-12-16T09:32:17.455Z,6.60
2017-12-16T09:34:45.778Z,6.03
2017-12-16T09:37:14.144Z,8.50
2017-12-16T09:39:42.511Z,9.37
2017-12-16T09:42:11.634Z,8.80
2017-12-16T09:44:39.970Z,9.37
2017-12-16T09:47:09.089Z,10.00
2017-12-16T09:49:37.435Z,10.03
2017-12-16T09:52:15.408Z,9.70
2017-12-16T09:54:43.725Z,8.33
2017-12-16T09:57:12.079Z,8.50
2017-12-16T09:59:40.430Z,8.90
2017-12-16T10:02:08.919Z,8.93
2017-12-16T10:04:37.574Z,12.30
2017-12-16T10:07:06.210Z,12.90
2017-12-16T10:09:34.587Z,9.30
2017-12-16T10:12:02.957Z,12.10
2017-12-16T10:14:31.297Z,11.87
2017-12-16T10:16:59.661Z,13.70
2017-12-16T10:19:28.754Z,20.87
2017-12-16T10:24:57.094Z,19.50
2017-12-16T10:27:25.482Z,13.47
2017-12-16T10:29:53.886Z,10.73
2017-12-16T10:32:22.240Z,13.30
2017-12-16T10:34:53.654Z,18.10
2017-12-16T10:37:22.777Z,12.63
2017-12-16T10:39:51.101Z,19.90
2017-12-16T10:42:20.482Z,17.10
2017-12-16T10:44:48.824Z,12.83
2017-12-16T10:47:17.215Z,11.43
2017-12-16T10:49:45.531Z,13.40
2017-12-16T10:52:13.894Z,12.37
2017-12-16T10:54:42.254Z,12.57
2017-12-16T10:57:10.659Z,12.13
2017-12-16T10:59:39.015Z,11.90
2017-12-16T11:02:07.379Z,10.90
2017-12-16T11:04:35.732Z,12.33
2017-12-16T11:07:04.107Z,11.20
2017-12-16T11:09:32.433Z,12.17
2017-12-16T11:12:00.811Z,10.40
2017-12-16T11:14:29.156Z,11.50
2017-12-16T11:16:58.288Z,11.50
2017-12-16T11:19:26.678Z,12.60
2017-12-16T11:21:55.071Z,13.17
2017-12-16T11:24:23.438Z,13.17
2017-12-16T11:26:51.812Z,14.60
2017-12-16T11:29:20.176Z,15.07
2017-12-16T11:31:48.535Z,18.00
2017-12-16T11:34:16.939Z,15.87
2017-12-16T11:36:45.292Z,15.83
2017-12-16T11:39:14.375Z,15.10
2017-12-16T11:44:44.671Z,14.60
2017-12-16T11:47:13.037Z,12.27
2017-12-16T11:49:41.449Z,14.40
2017-12-16T11:52:09.824Z,14.00
2017-12-16T11:54:38.188Z,14.90
2017-12-16T11:57:06.548Z,32.00
2017-12-16T11:59:34.900Z,23.70
2017-12-16T12:02:04.077Z,20.60
2017-12-16T12:04:32.404Z,19.03
2017-12-16T12:07:00.765Z,14.60
2017-12-16T12:09:29.121Z,14.10
2017-12-16T12:11:57.493Z,12.43
2017-12-16T12:14:25.813Z,12.67
2017-12-16T12:16:54.933Z,13.23
2017-12-16T12:19:23.278Z,15.40
2017-12-16T12:21:52.398Z,14.90
2017-12-16T12:24:20.755Z,15.20
2017-12-16T12:26:50.036Z,15.10
2017-12-16T12:29:18.369Z,14.80
2017-12-16T12:31:46.686Z,14.27
2017-12-16T12:34:15.049Z,14.63
2017-12-16T12:36:43.414Z,15.50
2017-12-16T12:39:11.759Z,17.93
2017-12-16T12:41:44.817Z,16.87
2017-12-16T12:44:13.173Z,15.90
2017-12-16T12:46:41.519Z,16.80
2017-12-16T12:49:09.848Z,16.53
2017-12-16T12:51:38.209Z,23.00
2017-12-16T12:54:06.558Z,20.40
2017-12-16T12:56:34.886Z,21.90
2017-12-16T12:59:03.246Z,18.03
2017-12-16T13:01:37.773Z,17.60
2017-12-16T13:04:06.121Z,16.97
2017-12-16T13:06:34.432Z,15.37
2017-12-16T13:09:02.766Z,19.37
2017-12-16T13:11:31.837Z,17.30
2017-12-16T13:14:00.177Z,17.77
2017-12-16T13:16:28.491Z,17.10
2017-12-16T13:18:56.820Z,18.00
2017-12-16T13:21:25.135Z,16.73
2017-12-16T13:23:53.487Z,17.70
2017-12-16T13:26:21.822Z,16.83
2017-12-16T13:28:50.897Z,17.17
2017-12-16T13:31:19.237Z,17.57
2017-12-16T13:33:47.550Z,13.80
2017-12-16T13:36:15.907Z,13.57
2017-12-16T13:38:44.228Z,13.97
2017-12-16T13:41:13.330Z,16.47
2017-12-16T13:43:42.416Z,15.53
2017-12-16T13:46:11.532Z,15.63
2017-12-16T13:48:40.629Z,15.73
2017-12-16T13:51:09.733Z,17.00
2017-12-16T13:53:38.069Z,15.93
2017-12-16T13:56:06.413Z,16.40
2017-12-16T13:58:34.724Z,17.77
2017-12-16T14:03:56.965Z,15.00
2017-12-16T14:06:25.301Z,15.60
2017-12-16T14:08:53.651Z,18.33
2017-12-16T14:11:22.021Z,17.00
2017-12-16T14:13:50.333Z,17.97
2017-12-16T14:16:19.409Z,18.53
2017-12-16T14:18:47.749Z,17.47
2017-12-16T14:21:16.080Z,19.77
2017-12-16T14:23:45.188Z,20.20
2017-12-16T14:26:13.501Z,19.00
2017-12-16T14:28:41.877Z,17.83
2017-12-16T14:31:10.202Z,19.30
2017-12-16T14:33:39.305Z,18.77
2017-12-16T14:36:08.393Z,19.10
2017-12-16T14:38:36.766Z,18.70
2017-12-16T14:41:05.080Z,19.70
2017-12-16T14:43:33.441Z,19.43
2017-12-16T14:46:02.521Z,19.40
2017-12-16T14:48:30.889Z,19.23
2017-12-16T14:50:59.241Z,18.43
2017-12-16T14:53:27.600Z,18.00
2017-12-16T14:55:55.913Z,18.37
2017-12-16T14:58:24.257Z,18.73
2017-12-16T15:00:52.565Z,18.93
2017-12-16T15:03:20.892Z,17.87
2017-12-16T15:05:49.997Z,17.83
2017-12-16T15:08:18.330Z,19.13
2017-12-16T15:10:46.695Z,19.13
2017-12-16T15:13:15.781Z,17.97
2017-12-16T15:15:44.143Z,18.03
2017-12-16T15:18:12.522Z,18.30
2017-12-16T15:20:40.884Z,17.47
2017-12-16T15:23:09.311Z,19.13
2017-12-16T15:25:37.695Z,17.50
2017-12-16T15:28:06.029Z,17.40
2017-12-16T15:30:34.382Z,19.10
2017-12-16T15:33:02.750Z,19.73
2017-12-16T15:35:31.102Z,18.70
2017-12-16T15:37:59.465Z,20.23
2017-12-16T15:40:27.808Z,19.47
2017-12-16T15:42:56.156Z,19.60
2017-12-16T15:45:24.476Z,19.10
2017-12-16T15:47:52.865Z,17.57
2017-12-16T15:50:21.930Z,20.07
2017-12-16T15:52:51.093Z,18.60
2017-12-16T15:55:19.401Z,17.63
2017-12-16T15:57:47.744Z,16.63
2017-12-16T16:00:16.063Z,17.27
2017-12-16T16:02:45.239Z,16.80
2017-12-16T16:05:13.575Z,17.60
2017-12-16T16:07:41.951Z,17.43
2017-12-16T16:10:10.311Z,17.13
2017-12-16T16:12:39.425Z,16.13
2017-12-16T16:15:07.758Z,17.10
2017-12-16T16:17:36.152Z,17.60
2017-12-16T16:20:05.258Z,17.83
2017-12-16T16:22:34.369Z,16.70
2017-12-16T16:25:02.738Z,16.70
2017-12-16T16:27:31.842Z,17.20
2017-12-16T16:30:00.956Z,16.40
2017-12-16T16:32:29.347Z,18.60
2017-12-16T16:34:57.739Z,26.20
2017-12-16T16:37:26.114Z,18.97
2017-12-16T16:39:54.467Z,18.20
2017-12-16T16:42:22.817Z,16.20
2017-12-16T16:44:51.162Z,17.80
2017-12-16T16:47:23.146Z,18.67
2017-12-16T16:49:51.497Z,18.60
2017-12-16T16:52:19.837Z,19.03
2017-12-16T16:54:48.266Z,18.10
2017-12-16T16:57:16.642Z,15.67
2017-12-16T16:59:44.978Z,16.03
2017-12-16T17:02:14.080Z,16.40
2017-12-16T17:04:42.473Z,15.20
2017-12-16T17:07:10.790Z,12.40
2017-12-16T17:09:39.152Z,12.60
2017-12-16T17:12:07.489Z,14.60
2017-12-16T17:14:36.597Z,15.90
2017-12-16T17:17:07.925Z,14.10
2017-12-16T17:19:37.054Z,15.53
2017-12-16T17:22:05.416Z,13.90
2017-12-16T17:24:34.545Z,14.43
2017-12-16T17:27:02.872Z,15.07
2017-12-16T17:29:31.962Z,15.00
2017-12-16T17:32:01.079Z,14.40
2017-12-16T17:34:30.203Z,13.27
2017-12-16T17:36:59.381Z,13.33
2017-12-16T17:39:28.452Z,13.03
2017-12-16T17:41:57.579Z,12.43
2017-12-16T17:44:25.896Z,21.97
2017-12-16T17:46:54.275Z,22.37
2017-12-16T17:49:22.597Z,21.30
2017-12-16T17:51:51.739Z,19.73
2017-12-16T17:54:20.882Z,32.17
2017-12-16T17:57:04.141Z,24.60
2017-12-16T17:59:32.474Z,17.30
2017-12-16T18:02:00.861Z,9.70
2017-12-16T18:04:29.235Z,10.70
2017-12-16T18:06:58.587Z,10.83
2017-12-16T18:09:26.989Z,11.00
2017-12-16T18:11:55.351Z,11.83
2017-12-16T18:14:23.701Z,12.33
2017-12-16T18:16:52.824Z,11.07
2017-12-16T18:19:21.208Z,9.97
2017-12-16T18:21:49.585Z,8.90
2017-12-16T18:24:17.991Z,7.80
2017-12-16T18:26:46.306Z,8.60
2017-12-16T18:29:14.690Z,8.13
2017-12-16T18:31:43.799Z,8.47
2017-12-16T18:34:12.902Z,8.60
2017-12-16T18:36:41.219Z,7.70
2017-12-16T18:39:09.628Z,7.70
2017-12-16T18:41:38.018Z,7.60
2017-12-16T18:44:06.424Z,7.90
2017-12-16T18:46:34.777Z,7.67
2017-12-16T18:49:03.168Z,7.97
2017-12-16T18:51:31.572Z,7.40
2017-12-16T18:53:59.938Z,7.53
2017-12-16T18:56:29.081Z,7.87
2017-12-16T18:58:57.421Z,11.30
2017-12-16T19:01:26.525Z,9.23
2017-12-16T19:03:54.835Z,9.20
2017-12-16T19:06:23.178Z,8.63
2017-12-16T19:08:51.490Z,6.83
2017-12-16T19:11:19.897Z,6.90
2017-12-16T19:13:48.315Z,5.70
2017-12-16T19:16:17.452Z,6.80
2017-12-16T19:18:45.808Z,6.07
2017-12-16T19:21:14.189Z,5.60
2017-12-16T19:23:42.567Z,5.20
2017-12-16T19:26:10.973Z,5.07
2017-12-16T19:28:39.340Z,6.00
2017-12-16T19:31:07.674Z,5.13
2017-12-16T19:33:36.743Z,4.93
2017-12-16T19:36:05.132Z,5.80
2017-12-16T19:38:45.940Z,6.03
2017-12-16T19:41:14.362Z,4.43
2017-12-16T19:43:42.702Z,4.90
2017-12-16T19:46:11.005Z,5.20
2017-12-16T19:48:39.385Z,5.37
2017-12-16T19:51:07.737Z,4.90
2017-12-16T19:53:36.085Z,4.93
2017-12-16T19:56:05.225Z,4.60
2017-12-16T19:58:33.579Z,4.90
2017-12-16T20:01:02.705Z,4.17
2017-12-16T20:03:31.092Z,5.23
2017-12-16T20:05:59.448Z,4.30
2017-12-16T20:08:27.861Z,5.57
2017-12-16T20:10:56.269Z,6.10
2017-12-16T20:13:24.668Z,5.00
2017-12-16T20:15:53.825Z,4.53
2017-12-16T20:18:22.228Z,5.10
2017-12-16T20:20:50.672Z,4.37
2017-12-16T20:23:30.240Z,4.87
2017-12-16T20:25:58.684Z,5.57
2017-12-16T20:28:27.122Z,6.30
2017-12-16T20:30:56.332Z,6.60
2017-12-16T20:33:25.490Z,6.63
2017-12-16T20:35:53.902Z,7.37
2017-12-16T20:38:22.301Z,7.20
2017-12-16T20:40:51.481Z,6.73
2017-12-16T20:43:20.678Z,7.07
2017-12-16T20:45:49.057Z,6.97
2017-12-16T20:48:17.464Z,8.07
2017-12-16T20:50:45.850Z,6.73
2017-12-16T20:53:17.544Z,6.83
2017-12-16T20:55:45.900Z,7.00
2017-12-16T20:58:15.064Z,7.03
2017-12-16T21:00:44.277Z,7.37
2017-12-16T21:03:12.691Z,6.37
2017-12-16T21:05:41.094Z,6.30
2017-12-16T21:08:09.513Z,6.80
2017-12-16T21:10:37.904Z,7.50
2017-12-16T21:13:06.401Z,5.83
2017-12-16T21:15:34.786Z,7.53
2017-12-16T21:18:03.192Z,6.93
2017-12-16T21:20:31.570Z,6.40
2017-12-16T21:22:59.984Z,6.33
2017-12-16T21:25:29.146Z,5.00
2017-12-16T21:27:57.564Z,6.40
2017-12-16T21:30:25.955Z,6.47
2017-12-16T21:32:55.108Z,5.50
2017-12-16T21:35:23.487Z,5.83
2017-12-16T21:37:51.924Z,5.33
2017-12-16T21:40:20.305Z,5.70
2017-12-16T21:42:48.710Z,6.20
2017-12-16T21:45:17.094Z,5.80
2017-12-16T21:47:45.517Z,6.53
2017-12-16T21:50:14.668Z,7.03
2017-12-16T21:52:43.046Z,7.63
2017-12-16T21:55:11.465Z,7.97
2017-12-16T21:57:40.642Z,6.50
2017-12-16T22:00:09.028Z,8.37
2017-12-16T22:02:38.229Z,6.70
2017-12-16T22:05:06.644Z,8.47
2017-12-16T22:07:35.848Z,6.63
2017-12-16T22:10:04.967Z,7.50
2017-12-16T22:12:33.509Z,7.40
2017-12-16T22:15:01.969Z,7.90
2017-12-16T22:17:30.391Z,7.17
2017-12-16T22:19:59.554Z,7.10
2017-12-16T22:22:27.960Z,7.27
2017-12-16T22:24:57.111Z,6.73
2017-12-16T22:27:25.522Z,7.37
2017-12-16T22:29:54.111Z,8.50
2017-12-16T22:32:22.546Z,8.70
2017-12-16T22:34:51.739Z,8.77
2017-12-16T22:37:20.146Z,9.00
2017-12-16T22:39:48.553Z,7.03
2017-12-16T22:42:17.729Z,8.27
2017-12-16T22:44:46.983Z,7.30
2017-12-16T22:47:15.394Z,7.80
2017-12-16T22:49:43.813Z,7.87
2017-12-16T22:52:14.266Z,7.87
2017-12-16T22:54:42.683Z,7.30
2017-12-16T22:57:11.054Z,7.67
2017-12-16T22:59:39.496Z,7.17
2017-12-16T23:02:08.622Z,7.20
2017-12-16T23:04:37.054Z,6.00
2017-12-16T23:07:06.214Z,6.53
2017-12-16T23:09:34.642Z,9.87
2017-12-16T23:12:03.775Z,7.13
2017-12-16T23:14:32.271Z,8.73
2017-12-16T23:17:00.699Z,7.97
2017-12-16T23:19:29.114Z,7.13
2017-12-16T23:21:57.550Z,7.60
2017-12-16T23:24:26.724Z,6.50
2017-12-16T23:26:55.174Z,7.10
2017-12-16T23:29:23.585Z,6.33
2017-12-16T23:31:51.985Z,7.10
2017-12-16T23:34:21.130Z,6.77
2017-12-16T23:36:49.526Z,8.03
2017-12-16T23:39:17.929Z,6.47
2017-12-16T23:41:47.123Z,7.63
2017-12-16T23:44:15.518Z,6.50
2017-12-16T23:46:44.760Z,7.63
2017-12-16T23:49:13.173Z,7.53
2017-12-16T23:51:41.503Z,7.20
2017-12-16T23:54:10.632Z,7.37
2017-12-16T23:56:38.958Z,7.77
2017-12-16T23:59:10.027Z,6.30
